createdAt,value
2023-01-11T00:00:51.103Z,210.19
2023-01-11T00:01:51.162Z,206.92
2023-01-11T00:02:51.074Z,212.00
2023-01-11T00:03:51.060Z,209.56
2023-01-11T00:04:51.173Z,208.48
2023-01-11T00:05:51.022Z,208.74
2023-01-11T00:06:51.011Z,209.06
2023-01-11T00:07:50.984Z,206.12
2023-01-11T00:08:50.971Z,206.52
2023-01-11T00:09:50.948Z,208.45
2023-01-11T00:10:50.931Z,208.16
2023-01-11T00:11:50.919Z,210.23
2023-01-11T00:12:50.919Z,207.97
2023-01-11T00:13:50.876Z,206.40
2023-01-11T00:14:50.877Z,206.69
2023-01-11T00:15:50.934Z,206.90
2023-01-11T00:16:50.828Z,207.39
2023-01-11T00:17:50.810Z,206.83
2023-01-11T00:18:50.812Z,208.56
2023-01-11T00:19:50.782Z,207.53
2023-01-11T00:20:50.768Z,207.17
2023-01-11T00:21:50.745Z,206.47
2023-01-11T00:22:50.720Z,204.83
2023-01-11T00:23:50.750Z,207.86
2023-01-11T00:24:50.696Z,205.03
2023-01-11T00:25:50.689Z,207.55
2023-01-11T00:26:50.687Z,207.54
2023-01-11T00:27:50.654Z,205.77
2023-01-11T00:28:50.650Z,206.75
2023-01-11T00:29:50.628Z,208.24
2023-01-11T00:30:50.616Z,205.05
2023-01-11T00:31:50.638Z,206.94
2023-01-11T00:32:50.576Z,207.55
2023-01-11T00:33:50.558Z,206.58
2023-01-11T00:34:50.531Z,205.23
2023-01-11T00:35:50.536Z,205.77
2023-01-11T00:36:50.500Z,206.78
2023-01-11T00:37:50.509Z,206.98
2023-01-11T00:38:50.507Z,207.27
2023-01-11T00:39:50.459Z,206.84
2023-01-11T00:40:50.462Z,205.50
2023-01-11T00:41:50.433Z,205.60
2023-01-11T00:42:50.403Z,202.29
2023-01-11T00:43:50.401Z,207.90
2023-01-11T00:44:50.385Z,205.40
2023-01-11T00:45:50.402Z,206.61
2023-01-11T00:46:50.347Z,209.06
2023-01-11T00:47:50.341Z,203.77
2023-01-11T00:48:50.301Z,205.44
2023-01-11T00:49:50.293Z,204.00
2023-01-11T00:50:50.283Z,206.15
2023-01-11T00:51:50.258Z,204.95
2023-01-11T00:52:50.268Z,205.13
2023-01-11T00:53:50.234Z,204.95
2023-01-11T00:54:50.211Z,205.56
2023-01-11T00:55:50.213Z,204.50
2023-01-11T00:56:50.198Z,203.94
2023-01-11T00:57:50.177Z,204.31
2023-01-11T00:58:50.163Z,202.88
2023-01-11T00:59:50.139Z,203.16
2023-01-11T01:00:50.119Z,203.51
2023-01-11T01:01:50.128Z,203.50
2023-01-11T01:02:50.176Z,203.87
2023-01-11T01:03:50.094Z,202.20
2023-01-11T01:04:50.038Z,204.40
2023-01-11T01:05:50.036Z,202.93
2023-01-11T01:06:50.109Z,203.83
2023-01-11T01:07:49.990Z,203.38
2023-01-11T01:08:49.972Z,205.51
2023-01-11T01:09:49.964Z,203.51
2023-01-11T01:10:49.935Z,204.45
2023-01-11T01:11:49.927Z,204.29
2023-01-11T01:12:49.913Z,204.70
2023-01-11T01:13:49.890Z,202.41
2023-01-11T01:14:49.859Z,201.47
2023-01-11T01:15:49.877Z,202.71
2023-01-11T01:16:49.832Z,203.87
2023-01-11T01:17:49.836Z,200.46
2023-01-11T01:18:49.818Z,202.03
2023-01-11T01:19:49.788Z,201.83
2023-01-11T01:20:49.770Z,201.26
2023-01-11T01:21:49.764Z,202.38
2023-01-11T01:22:49.763Z,202.47
2023-01-11T01:23:49.727Z,201.64
2023-01-11T01:24:49.709Z,200.85
2023-01-11T01:25:49.693Z,201.83
2023-01-11T01:26:49.662Z,202.49
2023-01-11T01:27:49.651Z,203.44
2023-01-11T01:28:49.646Z,200.41
2023-01-11T01:29:49.615Z,200.57
2023-01-11T01:30:49.626Z,202.10
2023-01-11T01:31:49.600Z,199.52
2023-01-11T01:32:49.570Z,200.25
2023-01-11T01:33:49.553Z,201.16
2023-01-11T01:34:49.539Z,201.40
2023-01-11T01:35:49.532Z,201.49
2023-01-11T01:36:49.497Z,201.82
2023-01-11T01:37:49.497Z,202.61
2023-01-11T01:38:49.467Z,200.75
2023-01-11T01:39:49.452Z,200.31
2023-01-11T01:40:49.425Z,202.74
2023-01-11T01:41:49.412Z,201.31
2023-01-11T01:42:49.412Z,201.50
2023-01-11T01:43:49.365Z,201.40
2023-01-11T01:44:49.362Z,202.05
2023-01-11T01:45:49.349Z,202.83
2023-01-11T01:46:49.311Z,202.11
2023-01-11T01:47:49.308Z,199.71
2023-01-11T01:48:49.271Z,199.11
2023-01-11T01:49:49.269Z,198.80
2023-01-11T01:50:49.239Z,200.57
2023-01-11T01:51:49.204Z,200.50
2023-01-11T01:52:49.181Z,200.73
2023-01-11T01:53:49.180Z,200.62
2023-01-11T01:54:49.145Z,201.07
2023-01-11T01:55:49.122Z,201.46
2023-01-11T01:56:49.116Z,197.84
2023-01-11T01:57:49.080Z,202.86
2023-01-11T01:58:49.073Z,200.24
2023-01-11T01:59:49.049Z,201.85
2023-01-11T02:00:49.036Z,197.82
2023-01-11T02:01:49.076Z,201.35
2023-01-11T02:02:49.143Z,201.08
2023-01-11T02:03:48.989Z,198.43
2023-01-11T02:04:48.957Z,198.94
2023-01-11T02:05:48.954Z,197.65
2023-01-11T02:06:49.020Z,199.56
2023-01-11T02:07:48.949Z,198.64
2023-01-11T02:08:48.950Z,198.28
2023-01-11T02:09:48.885Z,197.57
2023-01-11T02:10:48.858Z,197.42
2023-01-11T02:11:48.832Z,198.66
2023-01-11T02:12:48.821Z,198.90
2023-01-11T02:13:48.804Z,199.28
2023-01-11T02:14:48.774Z,199.62
2023-01-11T02:15:48.824Z,199.76
2023-01-11T02:16:48.733Z,198.69
2023-01-11T02:17:48.740Z,198.87
2023-01-11T02:18:48.702Z,198.82
2023-01-11T02:19:48.677Z,199.19
2023-01-11T02:20:48.660Z,199.86
2023-01-11T02:21:48.646Z,198.30
2023-01-11T02:22:48.651Z,199.63
2023-01-11T02:23:48.620Z,198.64
2023-01-11T02:24:48.576Z,196.67
2023-01-11T02:25:48.565Z,196.95
2023-01-11T02:26:48.548Z,196.08
2023-01-11T02:29:48.495Z,197.06
2023-01-11T03:13:47.613Z,197.10
2023-01-11T03:14:47.605Z,193.56
2023-01-11T03:15:47.635Z,195.36
2023-01-11T03:16:47.584Z,193.37
2023-01-11T03:17:47.540Z,197.23
2023-01-11T03:18:47.540Z,194.21
2023-01-11T03:19:47.517Z,197.69
2023-01-11T03:20:47.487Z,195.66
2023-01-11T03:21:47.474Z,194.25
2023-01-11T03:22:47.444Z,196.35
2023-01-11T03:23:47.417Z,195.36
2023-01-11T03:24:47.444Z,198.47
2023-01-11T03:25:47.378Z,196.85
2023-01-11T03:26:47.368Z,195.57
2023-01-11T03:27:47.350Z,194.91
2023-01-11T03:28:47.327Z,198.61
2023-01-11T03:29:47.331Z,196.83
2023-01-11T03:30:47.292Z,196.37
2023-01-11T03:31:47.274Z,198.51
2023-01-11T03:32:47.233Z,196.32
2023-01-11T03:33:47.202Z,194.44
2023-01-11T03:34:47.190Z,194.55
2023-01-11T03:35:47.170Z,198.23
2023-01-11T03:36:47.137Z,194.98
2023-01-11T03:37:47.123Z,196.32
2023-01-11T03:38:47.099Z,196.85
2023-01-11T03:39:47.099Z,197.11
2023-01-11T03:40:47.063Z,196.03
2023-01-11T03:41:47.036Z,195.98
2023-01-11T03:42:47.044Z,194.91
2023-01-11T03:43:47.017Z,194.65
2023-01-11T03:44:46.999Z,195.73
2023-01-11T03:45:46.972Z,196.81
2023-01-11T03:46:47.009Z,196.80
2023-01-11T03:47:46.934Z,197.91
2023-01-11T03:48:46.914Z,195.73
2023-01-11T03:49:46.887Z,195.12
2023-01-11T03:50:46.875Z,193.24
2023-01-11T03:51:46.859Z,196.32
2023-01-11T03:52:46.832Z,196.92
2023-01-11T03:53:46.820Z,195.17
2023-01-11T03:54:46.792Z,197.22
2023-01-11T03:55:46.783Z,195.86
2023-01-11T03:56:46.754Z,197.22
2023-01-11T03:57:46.730Z,196.86
2023-01-11T03:58:46.718Z,197.44
2023-01-11T03:59:46.705Z,197.34
2023-01-11T04:00:46.723Z,197.38
2023-01-11T04:01:46.652Z,195.13
2023-01-11T04:02:46.631Z,194.43
2023-01-11T04:03:46.632Z,195.39
2023-01-11T04:04:46.594Z,197.53
2023-01-11T04:05:46.579Z,196.19
2023-01-11T04:06:46.639Z,197.67
2023-01-11T04:07:46.538Z,196.94
2023-01-11T04:08:46.568Z,198.07
2023-01-11T04:09:46.473Z,194.60
2023-01-11T04:10:46.471Z,196.54
2023-01-11T04:11:46.442Z,195.50
2023-01-11T04:12:46.422Z,196.06
2023-01-11T04:13:46.403Z,196.76
2023-01-11T04:14:46.377Z,195.41
2023-01-11T04:15:46.384Z,196.75
2023-01-11T04:16:46.342Z,194.52
2023-01-11T04:17:46.309Z,194.23
2023-01-11T04:18:46.304Z,195.48
2023-01-11T04:19:46.286Z,195.11
2023-01-11T04:20:46.264Z,194.69
2023-01-11T04:21:46.248Z,196.31
2023-01-11T04:22:46.211Z,197.09
2023-01-11T04:23:46.182Z,195.55
2023-01-11T04:24:46.182Z,194.52
2023-01-11T04:25:46.149Z,195.22
2023-01-11T04:26:46.127Z,195.87
2023-01-11T04:27:46.144Z,196.16
2023-01-11T04:28:46.088Z,196.39
2023-01-11T04:29:46.054Z,195.40
2023-01-11T04:30:46.071Z,196.74
2023-01-11T04:31:46.109Z,195.36
2023-01-11T04:32:46.001Z,196.51
2023-01-11T04:33:45.974Z,195.25
2023-01-11T04:34:45.960Z,195.63
2023-01-11T04:35:45.942Z,195.43
2023-01-11T04:36:45.916Z,195.66
2023-01-11T04:37:45.894Z,193.99
2023-01-11T04:38:45.879Z,194.58
2023-01-11T04:39:45.846Z,195.97
2023-01-11T04:40:45.835Z,195.86
2023-01-11T04:41:45.810Z,195.22
2023-01-11T04:42:45.784Z,195.24
2023-01-11T04:43:45.778Z,193.75
2023-01-11T04:44:45.740Z,195.22
2023-01-11T04:45:45.743Z,194.16
2023-01-11T04:46:45.711Z,196.09
2023-01-11T04:47:45.681Z,193.94
2023-01-11T04:48:45.676Z,193.22
2023-01-11T04:49:45.653Z,192.04
2023-01-11T04:50:45.677Z,195.89
2023-01-11T04:51:45.600Z,193.14
2023-01-11T04:52:45.601Z,195.37
2023-01-11T04:53:45.562Z,193.52
2023-01-11T04:54:45.554Z,194.54
2023-01-11T04:55:45.528Z,193.30
2023-01-11T04:56:45.515Z,190.81
2023-01-11T04:57:45.487Z,194.58
2023-01-11T04:58:45.457Z,194.25
2023-01-11T04:59:45.467Z,192.81
2023-01-11T05:00:45.457Z,194.77
2023-01-11T05:01:45.402Z,193.59
2023-01-11T05:02:45.391Z,194.70
2023-01-11T05:03:45.497Z,194.12
2023-01-11T05:04:45.368Z,194.03
2023-01-11T05:05:45.337Z,193.23
2023-01-11T05:06:45.371Z,192.24
2023-01-11T05:07:45.297Z,192.76
2023-01-11T05:08:45.287Z,192.83
2023-01-11T05:09:45.282Z,193.16
2023-01-11T05:10:45.248Z,193.23
2023-01-11T05:11:45.243Z,193.68
2023-01-11T05:12:45.218Z,191.91
2023-01-11T05:13:45.228Z,193.27
2023-01-11T05:14:45.200Z,192.20
2023-01-11T05:15:45.186Z,193.41
2023-01-11T05:16:45.236Z,193.23
2023-01-11T11:31:27.131Z,146.95
2023-01-11T11:32:27.077Z,145.48
2023-01-11T11:33:27.039Z,146.86
2023-01-11T11:34:27.008Z,148.00
2023-01-11T11:35:27.007Z,149.12
2023-01-11T11:36:26.966Z,149.37
2023-01-11T11:37:26.964Z,149.59
2023-01-11T11:38:26.908Z,150.70
2023-01-11T11:39:26.901Z,152.66
2023-01-11T11:40:26.874Z,153.68
2023-01-11T11:41:26.844Z,154.43
2023-01-11T11:42:26.822Z,153.69
2023-01-11T11:43:26.793Z,155.76
2023-01-11T11:51:27.087Z,162.15
2023-01-11T12:18:25.789Z,157.39
2023-01-11T12:19:25.791Z,158.98
2023-01-11T12:20:25.764Z,154.77
2023-01-11T12:21:25.736Z,157.06
2023-01-11T12:22:25.694Z,150.31
2023-01-11T12:23:25.695Z,152.94
2023-01-11T12:24:26.686Z,157.28
2023-01-11T12:25:25.675Z,153.32
2023-01-11T12:26:25.593Z,140.76
2023-01-11T12:27:25.594Z,142.17
2023-01-11T12:28:25.541Z,132.08
2023-01-11T12:29:25.529Z,135.63
2023-01-11T12:30:25.488Z,138.74
2023-01-11T12:31:25.458Z,134.41
2023-01-11T12:32:25.428Z,132.29
2023-01-11T12:33:25.416Z,125.47
2023-01-11T12:34:25.376Z,125.74
2023-01-11T12:35:25.346Z,125.53
2023-01-11T12:36:25.328Z,128.17
2023-01-11T12:37:25.298Z,132.63
2023-01-11T12:38:25.266Z,134.69
2023-01-11T12:39:25.232Z,143.49
2023-01-11T12:40:25.195Z,139.01
2023-01-11T12:41:25.175Z,138.06
2023-01-11T19:37:17.649Z,237.62
2023-01-11T19:38:17.635Z,238.95
2023-01-11T19:39:17.612Z,238.62
2023-01-11T19:40:17.620Z,240.49
2023-01-11T19:41:17.585Z,238.05
2023-01-11T19:42:17.594Z,236.66
2023-01-11T19:43:17.562Z,237.49
2023-01-11T19:44:17.559Z,240.56
2023-01-11T19:45:17.559Z,240.73
2023-01-11T19:46:30.711Z,239.27
2023-01-11T19:48:17.514Z,240.24
2023-01-11T19:49:17.495Z,239.52
2023-01-11T19:50:17.485Z,241.81
2023-01-11T19:51:17.478Z,240.18
2023-01-11T19:52:17.451Z,237.36
2023-01-11T19:53:17.428Z,238.20
2023-01-11T19:54:17.418Z,239.42
2023-01-11T19:55:17.401Z,238.65
2023-01-11T19:56:17.390Z,237.02
2023-01-11T19:57:17.386Z,235.81
2023-01-11T19:58:17.353Z,237.34
2023-01-11T19:59:17.368Z,237.17
2023-01-11T20:00:17.353Z,236.40
2023-01-11T20:01:17.417Z,238.20
2023-01-11T20:02:17.333Z,236.14
2023-01-11T20:03:17.298Z,238.49
2023-01-11T20:04:17.304Z,234.02
2023-01-11T20:05:17.269Z,238.05
2023-01-11T20:06:17.262Z,237.44
2023-01-11T20:07:17.229Z,237.21
2023-01-11T20:08:17.217Z,235.89
2023-01-11T20:09:17.200Z,233.32
2023-01-11T20:10:17.203Z,236.52
2023-01-11T20:11:17.194Z,236.62
2023-01-11T20:12:17.179Z,236.83
2023-01-11T20:13:17.157Z,237.15
2023-01-11T20:14:17.142Z,237.48
2023-01-11T20:15:17.115Z,237.74
2023-01-11T20:16:17.176Z,237.63
2023-01-11T20:17:17.083Z,237.31
2023-01-11T20:18:17.070Z,236.80
2023-01-11T20:19:17.049Z,236.26
2023-01-11T20:20:17.045Z,237.06
2023-01-11T20:21:17.040Z,238.00
2023-01-11T20:22:17.016Z,234.16
2023-01-11T20:23:17.001Z,234.08
2023-01-11T20:24:16.999Z,233.96
2023-01-11T20:25:16.978Z,237.66
2023-01-11T20:26:16.986Z,237.61
2023-01-11T20:27:16.982Z,236.29
2023-01-11T20:28:16.934Z,234.52
2023-01-11T20:29:16.941Z,238.15
2023-01-11T20:30:16.927Z,236.85
2023-01-11T20:31:16.966Z,237.12
2023-01-11T20:32:39.038Z,237.35
2023-01-11T20:34:16.834Z,237.93
2023-01-11T20:35:16.815Z,237.87
2023-01-11T20:36:16.827Z,237.13
2023-01-11T20:37:16.800Z,238.91
2023-01-11T20:38:16.775Z,235.17
2023-01-11T20:39:16.758Z,234.85
2023-01-11T20:40:16.786Z,237.66
2023-01-11T20:41:16.723Z,234.69
2023-01-11T20:42:16.733Z,234.58
2023-01-11T20:43:16.706Z,235.42
2023-01-11T20:44:16.678Z,235.53
2023-01-11T20:45:16.649Z,233.11
2023-01-11T20:46:16.683Z,235.49
2023-01-11T20:47:16.620Z,233.83
2023-01-11T20:48:16.594Z,237.32
2023-01-11T20:49:16.596Z,235.35
2023-01-11T20:50:16.562Z,234.69
2023-01-11T20:51:16.549Z,235.29
2023-01-11T20:52:16.536Z,233.20
2023-01-11T20:53:16.503Z,233.78
2023-01-11T20:54:16.501Z,235.44
2023-01-11T20:55:16.478Z,235.40
2023-01-11T20:56:16.453Z,234.58
2023-01-11T20:57:16.455Z,233.28
2023-01-11T20:58:16.434Z,234.97
2023-01-11T20:59:16.466Z,235.38
2023-01-11T21:00:16.399Z,234.55
2023-01-11T21:01:16.389Z,235.09
2023-01-11T21:02:16.381Z,232.23
2023-01-11T21:03:16.354Z,234.40
2023-01-11T21:04:16.338Z,234.96
2023-01-11T21:05:16.343Z,232.52
2023-01-11T21:06:16.305Z,235.62
2023-01-11T21:07:16.292Z,232.50
2023-01-11T21:08:16.281Z,234.53
2023-01-11T21:09:16.264Z,233.11
2023-01-11T21:10:16.256Z,233.32
2023-01-11T21:11:16.242Z,233.04
2023-01-11T21:12:16.235Z,233.16
2023-01-11T21:13:16.207Z,232.15
2023-01-11T21:14:16.204Z,232.67
